createdAt,value
2019-01-08T00:01:55.866Z,50.20
2019-01-08T00:04:34.418Z,48.23
2019-01-08T00:07:17.721Z,50.60
2019-01-08T00:09:57.357Z,50.00
2019-01-08T00:12:37.641Z,53.33
2019-01-08T00:15:31.483Z,52.50
2019-01-08T00:18:24.017Z,51.20
2019-01-08T00:21:07.847Z,48.80
2019-01-08T00:23:43.541Z,49.47
2019-01-08T00:26:23.245Z,44.73
2019-01-08T00:29:18.671Z,42.40
2019-01-08T00:32:08.934Z,43.33
2019-01-08T00:34:40.231Z,43.30
2019-01-08T00:37:36.920Z,42.37
2019-01-08T00:40:13.799Z,41.30
2019-01-08T00:43:04.351Z,39.93
2019-01-08T00:45:47.462Z,38.03
2019-01-08T00:48:33.502Z,39.80
2019-01-08T00:51:06.746Z,40.30
2019-01-08T00:53:59.234Z,44.13
2019-01-08T00:56:53.957Z,38.13
2019-01-08T00:59:33.527Z,35.00
2019-01-08T01:02:28.788Z,38.63
2019-01-08T01:05:12.324Z,33.33
2019-01-08T01:08:11.066Z,35.17
2019-01-08T01:10:56.828Z,35.17
2019-01-08T01:13:39.161Z,32.80
2019-01-08T01:16:36.296Z,23.07
2019-01-08T01:19:10.166Z,25.93
2019-01-08T01:21:42.878Z,20.87
2019-01-08T01:24:21.338Z,21.40
2019-01-08T01:27:06.825Z,21.23
2019-01-08T01:29:41.731Z,19.90
2019-01-08T01:32:20.879Z,21.90
2019-01-08T01:35:03.485Z,18.60
2019-01-08T01:37:38.660Z,19.07
2019-01-08T01:40:33.128Z,20.73
2019-01-08T01:43:12.555Z,19.73
2019-01-08T01:45:59.286Z,17.93
2019-01-08T01:48:34.170Z,18.73
2019-01-08T01:51:27.906Z,18.77
2019-01-08T01:54:08.146Z,17.70
2019-01-08T01:56:46.943Z,18.33
2019-01-08T01:59:31.252Z,16.07
2019-01-08T02:02:11.146Z,16.60
2019-01-08T02:04:50.262Z,14.17
2019-01-08T02:07:39.810Z,12.50
2019-01-08T02:10:20.445Z,13.13
2019-01-08T02:13:21.789Z,14.00
2019-01-08T02:15:59.732Z,12.33
2019-01-08T02:18:54.481Z,13.60
2019-01-08T02:21:31.573Z,12.50
2019-01-08T02:24:07.465Z,11.00
2019-01-08T02:26:57.355Z,12.27
2019-01-08T02:29:38.590Z,12.40
2019-01-08T02:32:16.305Z,10.57
2019-01-08T02:34:58.972Z,10.80
2019-01-08T02:37:32.260Z,10.57
2019-01-08T02:40:17.645Z,8.87
2019-01-08T02:43:03.219Z,9.60
2019-01-08T02:45:45.068Z,9.63
2019-01-08T02:48:24.442Z,10.37
2019-01-08T02:50:59.665Z,7.80
2019-01-08T02:53:37.302Z,8.10
2019-01-08T02:56:11.831Z,7.60
2019-01-08T02:58:50.581Z,8.57
2019-01-08T03:01:23.506Z,8.10
2019-01-08T03:04:07.780Z,9.77
2019-01-08T03:06:43.783Z,7.40
2019-01-08T03:09:38.455Z,8.30
2019-01-08T03:12:17.815Z,6.80
2019-01-08T03:15:05.258Z,7.30
2019-01-08T03:17:48.232Z,7.33
2019-01-08T03:20:32.172Z,6.27
2019-01-08T03:23:04.800Z,6.70
2019-01-08T03:25:42.306Z,6.10
2019-01-08T03:28:16.123Z,7.67
2019-01-08T03:30:52.693Z,5.17
2019-01-08T03:33:27.287Z,6.40
2019-01-08T03:36:22.329Z,5.97
2019-01-08T03:39:15.082Z,5.90
2019-01-08T03:41:59.945Z,6.33
2019-01-08T03:44:49.939Z,6.50
2019-01-08T03:47:39.465Z,6.23
2019-01-08T03:50:33.204Z,5.70
2019-01-08T03:53:06.748Z,6.70
2019-01-08T03:55:47.898Z,6.27
2019-01-08T03:58:19.706Z,5.60
2019-01-08T04:01:11.040Z,6.37
2019-01-08T04:03:43.927Z,7.27
2019-01-08T04:06:26.190Z,4.90
2019-01-08T04:09:00.394Z,6.83
2019-01-08T04:11:57.377Z,5.33
2019-01-08T04:14:39.588Z,5.30
2019-01-08T04:17:24.322Z,5.00
2019-01-08T04:20:04.787Z,5.13
2019-01-08T04:22:38.259Z,5.87
2019-01-08T04:25:32.397Z,7.40
2019-01-08T04:28:09.797Z,5.23
2019-01-08T04:30:49.681Z,5.37
2019-01-08T04:33:24.611Z,5.80
2019-01-08T04:36:15.208Z,5.20
2019-01-08T04:38:59.599Z,4.93
2019-01-08T04:41:39.835Z,5.37
2019-01-08T04:44:17.857Z,5.13
2019-01-08T04:47:06.925Z,5.67
2019-01-08T04:49:48.590Z,5.30
2019-01-08T04:52:30.611Z,4.20
2019-01-08T04:55:10.875Z,4.20
2019-01-08T04:58:10.788Z,6.40
2019-01-08T05:00:48.592Z,4.80
2019-01-08T05:03:21.676Z,5.30
2019-01-08T05:06:12.121Z,4.80
2019-01-08T05:09:05.565Z,5.40
2019-01-08T05:11:44.491Z,5.07
2019-01-08T05:14:21.595Z,4.50
2019-01-08T05:17:24.049Z,4.87
2019-01-08T05:19:59.169Z,5.90
2019-01-08T05:22:36.415Z,4.63
2019-01-08T05:25:15.659Z,7.60
2019-01-08T05:27:51.509Z,6.20
2019-01-08T05:30:38.458Z,5.30
2019-01-08T05:33:18.868Z,4.60
2019-01-08T05:35:53.770Z,5.03
2019-01-08T05:38:36.552Z,4.50
2019-01-08T05:41:09.848Z,5.47
2019-01-08T05:43:57.365Z,6.87
2019-01-08T05:46:39.935Z,5.20
2019-01-08T05:49:13.840Z,5.90
2019-01-08T05:51:50.121Z,5.20
2019-01-08T05:54:25.192Z,5.60
2019-01-08T05:57:00.303Z,4.43
2019-01-08T05:59:32.859Z,5.13
2019-01-08T06:02:28.433Z,4.10
2019-01-08T06:08:07.498Z,4.40
2019-01-08T06:10:45.585Z,5.30
2019-01-08T06:13:39.855Z,3.80
2019-01-08T06:16:18.520Z,3.73
2019-01-08T06:19:08.168Z,5.93
2019-01-08T06:21:43.527Z,4.00
2019-01-08T06:24:23.726Z,4.10
2019-01-08T06:27:30.885Z,4.60
2019-01-08T06:30:11.836Z,4.13
2019-01-08T06:33:02.634Z,3.70
2019-01-08T06:35:42.874Z,4.50
2019-01-08T06:38:24.745Z,4.43
2019-01-08T06:41:40.867Z,5.07
2019-01-08T06:44:49.182Z,5.97
2019-01-08T06:47:44.341Z,5.23
2019-01-08T06:50:22.697Z,12.53
2019-01-08T06:53:04.396Z,9.33
2019-01-08T06:55:43.780Z,10.07
2019-01-08T06:58:23.459Z,16.70
2019-01-08T07:01:03.340Z,14.40
2019-01-08T07:03:36.268Z,12.33
2019-01-08T07:06:21.523Z,14.10
2019-01-08T07:09:01.703Z,11.60
2019-01-08T07:11:37.959Z,13.67
2019-01-08T07:14:17.730Z,18.40
2019-01-08T07:17:07.284Z,14.33
2019-01-08T07:19:48.753Z,14.70
2019-01-08T07:22:49.809Z,12.10
2019-01-08T07:25:29.423Z,17.67
2019-01-08T07:28:10.323Z,16.20
2019-01-08T07:30:45.098Z,14.77
2019-01-08T07:33:45.442Z,17.27
2019-01-08T07:36:37.934Z,14.63
2019-01-08T07:39:43.566Z,16.30
2019-01-08T07:42:35.949Z,15.53
2019-01-08T07:45:13.385Z,13.20
2019-01-08T07:47:49.640Z,19.97
2019-01-08T07:50:23.274Z,15.10
2019-01-08T07:53:07.353Z,14.50
2019-01-08T07:55:45.298Z,14.70
2019-01-08T07:58:34.539Z,13.17
2019-01-08T08:01:14.906Z,15.23
2019-01-08T08:04:01.735Z,15.00
2019-01-08T08:06:39.431Z,16.37
2019-01-08T08:09:32.402Z,20.23
2019-01-08T08:12:12.415Z,17.10
2019-01-08T08:15:13.138Z,14.10
2019-01-08T08:17:56.906Z,16.80
2019-01-08T08:20:31.930Z,15.47
2019-01-08T08:23:29.573Z,13.60
2019-01-08T08:26:22.970Z,14.83
2019-01-08T08:29:09.451Z,14.00
2019-01-08T08:32:01.005Z,10.70
2019-01-08T08:34:32.063Z,11.03
2019-01-08T08:37:11.939Z,9.83
2019-01-08T08:40:00.288Z,8.97
2019-01-08T08:42:37.311Z,11.43
2019-01-08T08:45:13.160Z,9.10
2019-01-08T08:47:49.930Z,11.70
2019-01-08T08:50:44.170Z,12.33
2019-01-08T08:53:52.448Z,10.40
2019-01-08T08:56:20.994Z,11.70
2019-01-08T08:59:02.077Z,12.30
2019-01-08T09:01:48.536Z,11.40
2019-01-08T09:04:56.974Z,13.80
2019-01-08T09:07:33.331Z,18.80
2019-01-08T09:10:38.203Z,25.70
2019-01-08T09:13:17.323Z,61.17
2019-01-08T09:16:04.933Z,14.60
2019-01-08T09:18:37.291Z,20.10
2019-01-08T09:21:22.122Z,19.13
2019-01-08T09:24:12.127Z,9.83
2019-01-08T09:26:49.976Z,159.73
2019-01-08T09:29:37.930Z,1.63
2019-01-08T09:32:14.945Z,2.33
2019-01-08T09:34:52.278Z,0.93
2019-01-08T09:37:30.102Z,1.00
2019-01-08T09:40:14.104Z,1.90
2019-01-08T09:42:57.912Z,1.53
2019-01-08T09:45:31.926Z,2.20
2019-01-08T09:48:21.085Z,2.07
2019-01-08T09:50:57.899Z,1.60
2019-01-08T09:53:45.638Z,1.50
2019-01-08T09:56:44.458Z,2.00
2019-01-08T09:59:36.167Z,1.27
2019-01-08T10:02:20.051Z,1.87
2019-01-08T10:05:09.727Z,1.20
2019-01-08T10:07:55.215Z,1.30
2019-01-08T10:10:46.093Z,1.40
2019-01-08T10:13:30.234Z,1.07
2019-01-08T10:16:15.845Z,1.00
2019-01-08T10:18:59.616Z,2.10
2019-01-08T10:21:58.528Z,1.53
2019-01-08T10:24:49.636Z,3.60
2019-01-08T10:27:39.160Z,1.40
2019-01-08T10:30:25.392Z,1.73
2019-01-08T10:33:16.760Z,1.20
2019-01-08T10:35:58.618Z,1.53
2019-01-08T10:38:41.714Z,2.20
2019-01-08T10:41:28.304Z,1.60
2019-01-08T10:44:09.318Z,1.60
2019-01-08T10:46:44.503Z,1.43
2019-01-08T10:49:30.606Z,1.20
2019-01-08T10:52:24.985Z,1.40
2019-01-08T10:55:02.140Z,1.27
2019-01-08T10:57:35.621Z,2.50
2019-01-08T11:00:13.119Z,1.73
2019-01-08T11:03:04.970Z,2.60
2019-01-08T11:05:40.597Z,1.87
2019-01-08T11:08:21.489Z,3.57
2019-01-08T11:11:02.561Z,3.13
2019-01-08T11:13:58.458Z,1.90
2019-01-08T11:16:36.127Z,1.70
2019-01-08T11:19:28.024Z,1.53
2019-01-08T11:22:17.321Z,2.40
2019-01-08T11:24:52.282Z,1.73
2019-01-08T11:27:33.772Z,1.40
2019-01-08T11:30:16.436Z,1.53
2019-01-08T11:32:57.648Z,1.87
2019-01-08T11:35:42.026Z,1.80
2019-01-08T11:38:13.701Z,1.33
2019-01-08T11:41:02.985Z,1.60
2019-01-08T11:43:49.539Z,1.40
2019-01-08T11:46:26.760Z,1.73
2019-01-08T11:49:18.823Z,1.60
2019-01-08T11:52:03.812Z,1.33
2019-01-08T11:54:52.823Z,1.47
2019-01-08T11:57:31.521Z,1.40
2019-01-08T12:00:11.481Z,1.63
2019-01-08T12:02:49.463Z,1.60
2019-01-08T12:05:57.375Z,2.47
2019-01-08T12:12:11.293Z,1.60
2019-01-08T12:15:04.037Z,1.60
2019-01-08T12:17:55.314Z,2.00
2019-01-08T12:20:31.396Z,1.60
2019-01-08T12:23:11.456Z,3.70
2019-01-08T12:25:49.587Z,2.90
2019-01-08T12:28:32.699Z,2.50
2019-01-08T12:31:23.622Z,1.50
2019-01-08T12:34:19.841Z,3.10
2019-01-08T12:37:14.064Z,1.70
2019-01-08T12:39:53.553Z,5.90
2019-01-08T12:42:34.367Z,3.73
2019-01-08T12:45:26.778Z,2.10
2019-01-08T12:48:19.025Z,1.80
2019-01-08T12:51:22.837Z,1.60
2019-01-08T12:54:01.068Z,1.63
2019-01-08T12:56:35.046Z,2.03
2019-01-08T12:59:29.862Z,2.03
2019-01-08T13:02:20.252Z,2.23
2019-01-08T13:05:08.453Z,2.03
2019-01-08T13:07:55.239Z,2.33
2019-01-08T13:10:38.356Z,2.50
2019-01-08T13:13:20.286Z,3.30
2019-01-08T13:16:09.271Z,1.80
2019-01-08T13:18:51.670Z,2.57
2019-01-08T13:21:29.469Z,2.00
2019-01-08T13:24:15.766Z,1.80
2019-01-08T13:26:51.930Z,1.87
2019-01-08T13:29:36.429Z,1.73
2019-01-08T13:36:35.035Z,2.40
2019-01-08T13:39:26.659Z,3.97
2019-01-08T13:42:06.639Z,4.80
2019-01-08T13:45:02.238Z,5.23
2019-01-08T13:47:37.119Z,2.53
2019-01-08T13:50:11.827Z,2.87
2019-01-08T13:52:58.755Z,7.10
2019-01-08T13:56:08.622Z,2.60
2019-01-08T13:58:37.495Z,3.20
2019-01-08T14:01:59.472Z,3.00
2019-01-08T14:04:43.878Z,5.23
2019-01-08T14:08:02.044Z,3.83
2019-01-08T14:10:40.496Z,5.17
2019-01-08T14:13:38.354Z,5.73
2019-01-08T14:16:19.197Z,7.87
2019-01-08T14:19:04.807Z,2.80
2019-01-08T14:21:49.190Z,3.03
2019-01-08T14:24:32.037Z,6.13
2019-01-08T14:27:11.929Z,3.37
2019-01-08T14:29:48.069Z,2.70
2019-01-08T14:33:12.834Z,7.13
2019-01-08T14:44:10.509Z,2.87
2019-01-08T14:47:28.486Z,3.57
2019-01-08T14:50:25.211Z,4.30
2019-01-08T14:53:04.395Z,3.40
2019-01-08T14:55:51.277Z,3.17
2019-01-08T14:58:44.133Z,3.23
2019-01-08T15:01:49.859Z,3.00
2019-01-08T15:04:29.749Z,5.70
2019-01-08T15:07:13.064Z,8.97
2019-01-08T15:10:08.135Z,6.40
2019-01-08T15:12:42.408Z,2.33
2019-01-08T15:15:18.276Z,16.83
2019-01-08T15:18:19.259Z,17.53
2019-01-08T15:20:59.532Z,24.93
2019-01-08T15:23:32.799Z,24.33
2019-01-08T15:26:12.777Z,22.00
2019-01-08T15:29:03.820Z,15.50
2019-01-08T15:31:53.858Z,8.97
2019-01-08T15:34:40.878Z,6.30
2019-01-08T15:37:14.121Z,7.13
2019-01-08T15:40:10.106Z,5.00
2019-01-08T15:42:47.297Z,4.30
2019-01-08T15:45:22.277Z,3.63
2019-01-08T15:47:59.511Z,3.77
2019-01-08T15:50:42.887Z,2.80
2019-01-08T15:53:18.406Z,3.70
2019-01-08T15:55:57.867Z,6.27
2019-01-08T15:58:31.268Z,4.33
2019-01-08T16:01:15.036Z,2.20
2019-01-08T16:03:51.413Z,3.40
2019-01-08T16:06:25.582Z,3.27
2019-01-08T16:09:06.419Z,3.00
2019-01-08T16:11:59.803Z,5.73
2019-01-08T16:14:44.998Z,2.83
2019-01-08T16:17:38.375Z,2.00
2019-01-08T16:20:22.120Z,2.40
2019-01-08T16:22:58.323Z,2.73
2019-01-08T16:25:48.905Z,2.10
2019-01-08T16:28:27.098Z,2.60
2019-01-08T16:31:05.306Z,2.17
2019-01-08T16:33:41.988Z,1.80
2019-01-08T16:36:34.967Z,2.43
2019-01-08T16:39:12.298Z,2.47
2019-01-08T16:41:54.287Z,3.13
2019-01-08T16:44:30.733Z,2.93
2019-01-08T16:47:08.058Z,2.30
2019-01-08T16:49:44.301Z,2.13
2019-01-08T16:52:26.728Z,3.13
2019-01-08T16:55:12.222Z,2.73
2019-01-08T16:57:50.649Z,1.87
2019-01-08T17:00:22.294Z,2.60
2019-01-08T17:03:11.602Z,2.60
2019-01-08T17:06:13.490Z,2.43
2019-01-08T17:08:53.368Z,3.50
2019-01-08T17:11:52.697Z,2.50
2019-01-08T17:14:30.061Z,2.13
2019-01-08T17:17:25.036Z,2.73
2019-01-08T17:20:20.002Z,2.60
2019-01-08T17:23:13.470Z,3.40
2019-01-08T17:26:10.643Z,5.40
2019-01-08T17:28:47.427Z,2.63
2019-01-08T17:31:32.071Z,3.33
2019-01-08T17:34:32.409Z,3.50
2019-01-08T17:37:25.219Z,3.80
2019-01-08T17:40:36.860Z,3.07
2019-01-08T17:43:14.960Z,5.50
2019-01-08T17:46:15.708Z,4.93
2019-01-08T17:48:45.992Z,6.20
2019-01-08T17:51:40.216Z,4.73
2019-01-08T17:54:24.378Z,9.17
2019-01-08T17:57:21.622Z,2.93
2019-01-08T18:00:15.291Z,1.57
2019-01-08T18:03:04.504Z,2.50
2019-01-08T18:05:52.925Z,3.03
2019-01-08T18:08:28.385Z,4.50
2019-01-08T18:11:23.436Z,2.67
2019-01-08T18:14:09.962Z,2.03
2019-01-08T18:17:08.655Z,3.03
2019-01-08T18:19:48.688Z,3.10
2019-01-08T18:22:46.055Z,4.37
2019-01-08T18:25:47.363Z,1.70
2019-01-08T18:28:25.924Z,1.67
2019-01-08T18:31:20.010Z,2.20
2019-01-08T18:33:54.478Z,1.70
2019-01-08T18:36:31.622Z,1.80
2019-01-08T18:39:17.809Z,0.97
2019-01-08T18:41:57.347Z,1.40
2019-01-08T18:44:50.371Z,3.23
2019-01-08T18:47:43.451Z,2.90
2019-01-08T18:50:27.307Z,3.83
2019-01-08T18:53:01.115Z,1.90
2019-01-08T18:55:43.668Z,1.50
2019-01-08T18:58:25.416Z,5.43
2019-01-08T19:01:28.392Z,1.70
2019-01-08T19:04:18.104Z,1.77
2019-01-08T19:06:57.883Z,2.77
2019-01-08T19:09:42.501Z,1.57
2019-01-08T19:12:32.159Z,1.40
2019-01-08T19:15:30.469Z,2.70
2019-01-08T19:18:21.531Z,1.40
2019-01-08T19:21:07.014Z,1.50
2019-01-08T19:24:00.860Z,1.37
2019-01-08T19:26:45.243Z,1.83
2019-01-08T19:29:23.809Z,3.80
2019-01-08T19:32:02.815Z,2.17
2019-01-08T19:34:51.623Z,1.60
2019-01-08T19:37:34.921Z,2.00
2019-01-08T19:40:13.421Z,3.87
2019-01-08T19:42:47.492Z,1.93
2019-01-08T19:45:21.352Z,2.30
2019-01-08T19:47:53.181Z,2.47
2019-01-08T19:50:27.981Z,2.30
2019-01-08T19:53:03.616Z,1.50
2019-01-08T19:56:21.511Z,3.60
2019-01-08T19:58:55.252Z,1.70
2019-01-08T20:01:47.365Z,2.47
2019-01-08T20:04:18.354Z,1.70
2019-01-08T20:06:58.555Z,1.90
2019-01-08T20:10:28.875Z,1.60
2019-01-08T20:13:09.763Z,4.87
2019-01-08T20:15:49.903Z,5.93
2019-01-08T20:18:26.261Z,3.77
2019-01-08T20:21:00.628Z,9.27
2019-01-08T20:23:49.565Z,2.90
2019-01-08T20:26:22.520Z,2.50
2019-01-08T20:29:12.025Z,1.60
2019-01-08T20:32:01.058Z,1.37
2019-01-08T20:34:35.789Z,1.70
2019-01-08T20:37:06.633Z,1.70
2019-01-08T20:39:37.778Z,1.63
2019-01-08T20:42:10.569Z,1.77
2019-01-08T20:44:44.076Z,2.03
2019-01-08T20:47:17.913Z,2.23
2019-01-08T20:49:58.635Z,3.03
2019-01-08T20:52:32.235Z,1.50
2019-01-08T20:55:15.103Z,1.17
2019-01-08T20:57:49.236Z,8.90
2019-01-08T21:00:28.537Z,3.20
2019-01-08T21:03:02.169Z,1.60
2019-01-08T21:05:35.479Z,1.97
2019-01-08T21:08:12.069Z,3.07
2019-01-08T21:10:45.561Z,1.90
2019-01-08T21:13:16.564Z,1.80
2019-01-08T21:15:50.323Z,1.57
2019-01-08T21:18:25.237Z,1.50
2019-01-08T21:20:59.956Z,1.70
2019-01-08T21:23:33.687Z,1.73
2019-01-08T21:26:04.198Z,1.33
2019-01-08T21:28:34.957Z,1.40
2019-01-08T21:31:05.711Z,1.27
2019-01-08T21:33:36.311Z,0.90
2019-01-08T21:36:08.795Z,2.67
2019-01-08T21:38:42.531Z,2.20
2019-01-08T21:41:18.527Z,2.43
2019-01-08T21:43:52.865Z,1.67
2019-01-08T21:46:25.961Z,1.33
2019-01-08T21:48:57.276Z,1.27
2019-01-08T21:51:29.182Z,1.63
2019-01-08T21:54:02.545Z,1.27
2019-01-08T21:56:37.176Z,1.57
2019-01-08T21:59:08.789Z,1.97
2019-01-08T22:01:42.838Z,2.03
2019-01-08T22:04:16.300Z,1.77
2019-01-08T22:06:48.407Z,1.57
2019-01-08T22:09:21.285Z,2.20
2019-01-08T22:11:53.620Z,2.47
2019-01-08T22:14:26.196Z,1.93
2019-01-08T22:17:01.568Z,2.47
2019-01-08T22:19:50.898Z,1.90
2019-01-08T22:22:31.730Z,2.97
2019-01-08T22:25:03.955Z,1.47
2019-01-08T22:27:36.441Z,1.40
2019-01-08T22:30:08.529Z,1.40
2019-01-08T22:32:41.754Z,1.67
2019-01-08T22:35:16.053Z,1.40
2019-01-08T22:37:48.378Z,1.20
2019-01-08T22:40:31.735Z,1.90
2019-01-08T22:43:05.440Z,1.20
2019-01-08T22:45:57.046Z,1.53
2019-01-08T22:48:27.694Z,1.43
2019-01-08T22:51:01.610Z,0.80
2019-01-08T22:53:36.249Z,0.90
2019-01-08T22:56:11.682Z,1.13
2019-01-08T22:58:49.101Z,1.03
2019-01-08T23:01:23.811Z,1.00
2019-01-08T23:03:56.164Z,1.13
2019-01-08T23:06:26.817Z,1.50
2019-01-08T23:09:01.125Z,1.10
2019-01-08T23:11:37.528Z,1.43
2019-01-08T23:14:10.776Z,0.87
2019-01-08T23:16:49.732Z,1.77
2019-01-08T23:19:35.178Z,0.70
2019-01-08T23:22:27.326Z,1.27
2019-01-08T23:24:58.345Z,0.87
2019-01-08T23:27:31.848Z,1.30
2019-01-08T23:30:11.029Z,1.00
2019-01-08T23:32:44.441Z,0.90
2019-01-08T23:35:19.630Z,1.07
2019-01-08T23:37:52.891Z,1.10
2019-01-08T23:40:31.915Z,1.00
2019-01-08T23:43:04.880Z,1.33
2019-01-08T23:45:36.191Z,1.60
2019-01-08T23:48:25.895Z,2.40
2019-01-08T23:51:15.443Z,2.93
2019-01-08T23:54:00.515Z,1.30
2019-01-08T23:56:35.334Z,1.13
2019-01-08T23:59:07.267Z,1.60
